Terminal Aerodrome Forecast
Issued by NWS Atlanta, GA

Home | Current Version | Previous Version | Text Only | Print | Product List | Glossary On
Versions: 1 2 3 4 5 6 7 8 9 10 11 12 13 14 15 16 17
000
FTUS42 KFFC 191121
TAFMCN
TAF
KMCN 191121Z 1912/2012 12004KT 6SM BR BKN009
     FM191400 13005KT P6SM SCT008 BKN012
     FM191700 14006KT P6SM BKN025
     FM192000 14005KT P6SM BKN035
     FM200500 15005KT P6SM BKN015
     FM200800 15004KT 3SM BR BKN010
     FM201000 14004KT 2SM BR BKN007=

USA.gov is the U.S. government's official web portal to all federal, state and local government web resources and services.